Time,TemperatureF,DewpointF,PressureIn,WindDirection,WindDirectionDegrees,WindSpeedMPH,WindSpeedGustMPH,Humidity,HourlyPrecipIn,Conditions,Clouds,dailyrainin,SoftwareType,DateUTC
2013-02-25 00:03:00,-999.0,-99.9,26.32,North,-999,-999.0,-999.0,-999,0.00,,,0.00,weatherlink.com 1.10,2013-02-25 05:03:00,
2013-02-25 00:18:00,-999.0,-99.9,26.32,North,-999,-999.0,-999.0,-999,0.00,,,0.00,weatherlink.com 1.10,2013-02-25 05:18:00,
2013-02-25 00:33:00,-999.0,-99.9,26.31,North,-999,-999.0,-999.0,-999,0.00,,,0.00,weatherlink.com 1.10,2013-02-25 05:33:00,
2013-02-25 00:48:00,-999.0,-99.9,26.30,North,-999,-999.0,-999.0,-999,0.00,,,0.00,weatherlink.com 1.10,2013-02-25 05:48:00,
2013-02-25 01:03:00,-999.0,-99.9,26.31,North,-999,-999.0,-999.0,-999,0.00,,,0.00,weatherlink.com 1.10,2013-02-25 06:03:00,
2013-02-25 01:18:00,-999.0,-99.9,26.32,North,-999,-999.0,-999.0,-999,0.00,,,0.00,weatherlink.com 1.10,2013-02-25 06:18:00,
2013-02-25 01:33:00,-999.0,-99.9,26.32,North,-999,-999.0,-999.0,-999,0.00,,,0.00,weatherlink.com 1.10,2013-02-25 06:33:00,
2013-02-25 01:48:00,-999.0,-99.9,26.32,North,-999,-999.0,-999.0,-999,0.00,,,0.00,weatherlink.com 1.10,2013-02-25 06:48:00,
2013-02-25 02:03:00,-999.0,-99.9,26.32,North,-999,-999.0,-999.0,-999,0.00,,,0.00,weatherlink.com 1.10,2013-02-25 07:03:00,
2013-02-25 02:18:00,-999.0,-99.9,26.31,North,-999,-999.0,-999.0,-999,0.00,,,0.00,weatherlink.com 1.10,2013-02-25 07:18:00,
2013-02-25 02:33:00,-999.0,-99.9,26.30,North,-999,-999.0,-999.0,-999,0.00,,,0.00,weatherlink.com 1.10,2013-02-25 07:33:00,
2013-02-25 02:48:00,-999.0,-99.9,26.31,North,-999,-999.0,-999.0,-999,0.00,,,0.00,weatherlink.com 1.10,2013-02-25 07:48:00,
2013-02-25 03:04:00,-999.0,-99.9,26.30,North,-999,-999.0,-999.0,-999,0.00,,,0.00,weatherlink.com 1.10,2013-02-25 08:04:00,
2013-02-25 03:19:00,-999.0,-99.9,26.30,North,-999,-999.0,-999.0,-999,0.00,,,0.00,weatherlink.com 1.10,2013-02-25 08:19:00,
2013-02-25 03:34:00,-999.0,-99.9,26.32,North,-999,-999.0,-999.0,-999,0.00,,,0.00,weatherlink.com 1.10,2013-02-25 08:34:00,
2013-02-25 03:49:00,-999.0,-99.9,26.31,North,-999,-999.0,-999.0,-999,0.00,,,0.00,weatherlink.com 1.10,2013-02-25 08:49:00,
2013-02-25 04:04:00,-999.0,-99.9,26.30,North,-999,-999.0,-999.0,-999,0.00,,,0.00,weatherlink.com 1.10,2013-02-25 09:04:00,
2013-02-25 04:19:00,-999.0,-99.9,26.30,North,-999,-999.0,-999.0,-999,0.00,,,0.00,weatherlink.com 1.10,2013-02-25 09:19:00,
2013-02-25 04:34:00,-999.0,-99.9,26.30,North,-999,-999.0,-999.0,-999,0.00,,,0.00,weatherlink.com 1.10,2013-02-25 09:34:00,
2013-02-25 04:49:00,-999.0,-99.9,26.31,North,-999,-999.0,-999.0,-999,0.00,,,0.00,weatherlink.com 1.10,2013-02-25 09:49:00,
2013-02-25 05:04:00,-999.0,-99.9,26.32,North,-999,-999.0,-999.0,-999,0.00,,,0.00,weatherlink.com 1.10,2013-02-25 10:04:00,
2013-02-25 05:19:00,-999.0,-99.9,26.32,North,-999,-999.0,-999.0,-999,0.00,,,0.00,weatherlink.com 1.10,2013-02-25 10:19:00,
2013-02-25 05:34:00,-999.0,-99.9,26.32,North,-999,-999.0,-999.0,-999,0.00,,,0.00,weatherlink.com 1.10,2013-02-25 10:34:00,
2013-02-25 05:49:00,-999.0,-99.9,26.33,North,-999,-999.0,-999.0,-999,0.00,,,0.00,weatherlink.com 1.10,2013-02-25 10:49:00,
2013-02-25 06:04:00,-999.0,-99.9,26.32,North,-999,-999.0,-999.0,-999,0.00,,,0.00,weatherlink.com 1.10,2013-02-25 11:04:00,
2013-02-25 06:19:00,-999.0,-99.9,26.33,North,-999,-999.0,-999.0,-999,0.00,,,0.00,weatherlink.com 1.10,2013-02-25 11:19:00,
2013-02-25 06:35:00,-999.0,-99.9,26.33,North,-999,-999.0,-999.0,-999,0.00,,,0.00,weatherlink.com 1.10,2013-02-25 11:35:00,
2013-02-25 06:50:00,-999.0,-99.9,26.33,North,-999,-999.0,-999.0,-999,0.00,,,0.00,weatherlink.com 1.10,2013-02-25 11:50:00,
2013-02-25 07:05:00,-999.0,-99.9,26.34,North,-999,-999.0,-999.0,-999,0.00,,,0.00,weatherlink.com 1.10,2013-02-25 12:05:00,
2013-02-25 07:20:00,-999.0,-99.9,26.35,North,-999,-999.0,-999.0,-999,0.00,,,0.00,weatherlink.com 1.10,2013-02-25 12:20:00,
2013-02-25 07:35:00,-999.0,-99.9,26.35,North,-999,-999.0,-999.0,-999,0.00,,,0.00,weatherlink.com 1.10,2013-02-25 12:35:00,
2013-02-25 07:50:00,-999.0,-99.9,26.35,North,-999,-999.0,-999.0,-999,0.00,,,0.00,weatherlink.com 1.10,2013-02-25 12:50:00,
2013-02-25 08:05:00,28.4,21.0,26.36,NNW,342,0.0,2.0,74,0.00,,,0.00,weatherlink.com 1.10,2013-02-25 13:05:00,
2013-02-25 08:20:00,29.0,20.0,26.37,NNW,342,2.0,2.0,70,0.00,,,0.00,weatherlink.com 1.10,2013-02-25 13:20:00,
2013-02-25 08:35:00,29.4,19.0,26.38,NNW,338,1.0,3.0,66,0.00,,,0.00,weatherlink.com 1.10,2013-02-25 13:35:00,
2013-02-25 08:50:00,29.7,19.0,26.38,NE,40,3.0,4.0,65,0.00,,,0.00,weatherlink.com 1.10,2013-02-25 13:50:00,
2013-02-25 09:20:00,29.7,19.0,26.38,ENE,68,1.0,5.0,65,0.00,,,0.00,weatherlink.com 1.10,2013-02-25 14:20:00,
2013-02-25 09:35:00,29.4,19.0,26.39,ESE,118,2.0,7.0,66,0.00,,,0.00,weatherlink.com 1.10,2013-02-25 14:35:00,
2013-02-25 09:50:00,29.1,19.0,26.40,SE,125,2.0,9.0,67,0.00,,,0.00,weatherlink.com 1.10,2013-02-25 14:50:00,
2013-02-25 10:05:00,29.3,20.0,26.39,ESE,122,3.0,8.0,67,0.00,,,0.00,weatherlink.com 1.10,2013-02-25 15:05:00,
2013-02-25 10:20:00,29.7,20.0,26.39,SE,133,5.0,8.0,66,0.00,,,0.00,weatherlink.com 1.10,2013-02-25 15:20:00,
2013-02-25 10:35:00,29.8,20.0,26.38,ESE,119,5.0,6.0,68,0.00,,,0.00,weatherlink.com 1.10,2013-02-25 15:35:00,
2013-02-25 10:50:00,29.8,20.0,26.39,SE,126,0.0,8.0,67,0.00,,,0.00,weatherlink.com 1.10,2013-02-25 15:50:00,
2013-02-25 11:05:00,30.1,21.0,26.39,East,98,1.0,6.0,68,0.00,,,0.00,weatherlink.com 1.10,2013-02-25 16:05:00,
2013-02-25 11:20:00,30.4,20.0,26.39,East,98,0.0,5.0,66,0.00,,,0.00,weatherlink.com 1.10,2013-02-25 16:20:00,
2013-02-25 11:35:00,31.0,20.0,26.38,East,96,2.0,5.0,65,0.00,,,0.00,weatherlink.com 1.10,2013-02-25 16:35:00,
2013-02-25 11:50:00,31.3,20.0,26.37,East,98,3.0,6.0,63,0.00,,,0.00,weatherlink.com 1.10,2013-02-25 16:50:00,
2013-02-25 12:05:00,32.4,22.0,26.37,East,98,2.0,5.0,65,0.00,,,0.00,weatherlink.com 1.10,2013-02-25 17:05:00,
2013-02-25 12:21:00,32.2,21.0,26.37,East,98,0.0,3.0,63,0.00,,,0.00,weatherlink.com 1.10,2013-02-25 17:21:00,
2013-02-25 12:35:00,33.4,21.0,26.36,East,98,3.0,5.0,60,0.00,,,0.00,weatherlink.com 1.10,2013-02-25 17:35:00,
2013-02-25 12:51:00,33.4,21.0,26.36,East,101,0.0,5.0,61,0.00,,,0.00,weatherlink.com 1.10,2013-02-25 17:51:00,
2013-02-25 13:06:00,34.0,21.0,26.36,East,88,0.0,7.0,59,0.00,,,0.00,weatherlink.com 1.10,2013-02-25 18:06:00,
2013-02-25 13:21:00,34.4,22.0,26.34,East,90,5.0,6.0,60,0.00,,,0.00,weatherlink.com 1.10,2013-02-25 18:21:00,
2013-02-25 13:36:00,34.9,22.0,26.34,East,92,5.0,6.0,60,0.00,,,0.00,weatherlink.com 1.10,2013-02-25 18:36:00,
2013-02-25 13:51:00,35.2,23.0,26.35,ESE,105,2.0,6.0,61,0.00,,,0.00,weatherlink.com 1.10,2013-02-25 18:51:00,
2013-02-25 14:06:00,35.0,22.0,26.34,ESE,109,0.0,8.0,59,0.00,,,0.00,weatherlink.com 1.10,2013-02-25 19:06:00,
2013-02-25 14:21:00,35.5,23.0,26.33,ESE,105,3.0,5.0,60,0.00,,,0.00,weatherlink.com 1.10,2013-02-25 19:21:00,
2013-02-25 14:36:00,35.6,22.0,26.34,ESE,108,5.0,7.0,57,0.00,,,0.00,weatherlink.com 1.10,2013-02-25 19:36:00,
2013-02-25 14:58:00,35.9,22.0,26.34,ESE,108,0.0,5.0,57,0.00,,,0.00,weatherlink.com 1.10,2013-02-25 19:58:00,
2013-02-25 15:06:00,36.6,22.0,26.34,ESE,108,0.0,2.0,55,0.00,,,0.00,weatherlink.com 1.10,2013-02-25 20:06:00,
2013-02-25 15:21:00,37.0,22.0,26.32,ESE,102,0.0,7.0,54,0.00,,,0.00,weatherlink.com 1.10,2013-02-25 20:21:00,
2013-02-25 15:36:00,38.5,23.0,26.32,ESE,103,3.0,3.0,53,0.00,,,0.00,weatherlink.com 1.10,2013-02-25 20:36:00,
2013-02-25 15:51:00,40.1,22.0,26.32,ESE,111,0.0,4.0,48,0.00,,,0.00,weatherlink.com 1.10,2013-02-25 20:51:00,
2013-02-25 16:06:00,40.9,22.0,26.32,ESE,110,0.0,5.0,48,0.00,,,0.00,weatherlink.com 1.10,2013-02-25 21:06:00,
2013-02-25 16:21:00,41.9,23.0,26.32,SSE,150,3.0,7.0,48,0.00,,,0.00,weatherlink.com 1.10,2013-02-25 21:21:00,
2013-02-25 16:36:00,39.9,23.0,26.32,SSE,148,3.0,8.0,52,0.00,,,0.00,weatherlink.com 1.10,2013-02-25 21:36:00,
2013-02-25 16:51:00,39.3,22.0,26.32,SE,143,0.0,5.0,51,0.00,,,0.00,weatherlink.com 1.10,2013-02-25 21:51:00,
2013-02-25 17:06:00,38.8,23.0,26.33,SE,143,2.0,6.0,54,0.00,,,0.00,weatherlink.com 1.10,2013-02-25 22:06:00,
2013-02-25 17:21:00,38.3,23.0,26.32,SE,145,0.0,5.0,54,0.00,,,0.00,weatherlink.com 1.10,2013-02-25 22:21:00,
2013-02-25 17:36:00,38.5,23.0,26.32,SE,142,1.0,4.0,54,0.00,,,0.00,weatherlink.com 1.10,2013-02-25 22:36:00,
2013-02-25 17:51:00,36.9,22.0,26.32,SE,142,0.0,3.0,56,0.00,,,0.00,weatherlink.com 1.10,2013-02-25 22:51:00,
2013-02-25 18:06:00,35.9,23.0,26.32,SE,144,2.0,6.0,59,0.00,,,0.00,weatherlink.com 1.10,2013-02-25 23:06:00,
2013-02-25 18:21:00,-999.0,-99.9,26.32,North,-999,-999.0,-999.0,-999,0.00,,,0.00,weatherlink.com 1.10,2013-02-25 23:21:00,
2013-02-25 18:36:00,-999.0,-99.9,26.32,North,-999,-999.0,-999.0,-999,0.00,,,0.00,weatherlink.com 1.10,2013-02-25 23:36:00,
2013-02-25 18:51:00,-999.0,-99.9,26.32,North,-999,-999.0,-999.0,-999,0.00,,,0.00,weatherlink.com 1.10,2013-02-25 23:51:00,
2013-02-25 19:06:00,-999.0,-99.9,26.32,North,-999,-999.0,-999.0,-999,0.00,,,0.00,weatherlink.com 1.10,2013-02-26 00:06:00,
2013-02-25 19:21:00,-999.0,-99.9,26.33,North,-999,-999.0,-999.0,-999,0.00,,,0.00,weatherlink.com 1.10,2013-02-26 00:21:00,
2013-02-25 19:36:00,-999.0,-99.9,26.32,North,-999,-999.0,-999.0,-999,0.00,,,0.00,weatherlink.com 1.10,2013-02-26 00:36:00,
2013-02-25 19:51:00,-999.0,-99.9,26.32,North,-999,-999.0,-999.0,-999,0.00,,,0.00,weatherlink.com 1.10,2013-02-26 00:51:00,
2013-02-25 20:06:00,-999.0,-99.9,26.32,North,-999,-999.0,-999.0,-999,0.00,,,0.00,weatherlink.com 1.10,2013-02-26 01:06:00,
2013-02-25 20:22:00,-999.0,-99.9,26.33,North,-999,-999.0,-999.0,-999,0.00,,,0.00,weatherlink.com 1.10,2013-02-26 01:22:00,
2013-02-25 20:37:00,-999.0,-99.9,26.33,North,-999,-999.0,-999.0,-999,0.00,,,0.00,weatherlink.com 1.10,2013-02-26 01:37:00,
2013-02-25 20:52:00,-999.0,-99.9,26.32,North,-999,-999.0,-999.0,-999,0.00,,,0.00,weatherlink.com 1.10,2013-02-26 01:52:00,
2013-02-25 21:07:00,-999.0,-99.9,26.33,North,-999,-999.0,-999.0,-999,0.00,,,0.00,weatherlink.com 1.10,2013-02-26 02:07:00,
2013-02-25 21:22:00,-999.0,-99.9,26.32,North,-999,-999.0,-999.0,-999,0.00,,,0.00,weatherlink.com 1.10,2013-02-26 02:22:00,
2013-02-25 21:37:00,-999.0,-99.9,26.32,North,-999,-999.0,-999.0,-999,0.00,,,0.00,weatherlink.com 1.10,2013-02-26 02:37:00,
2013-02-25 21:52:00,-999.0,-99.9,26.34,North,-999,-999.0,-999.0,-999,0.00,,,0.00,weatherlink.com 1.10,2013-02-26 02:52:00,
2013-02-25 22:07:00,-999.0,-99.9,26.34,North,-999,-999.0,-999.0,-999,0.00,,,0.00,weatherlink.com 1.10,2013-02-26 03:07:00,
2013-02-25 22:22:00,-999.0,-99.9,26.33,North,-999,-999.0,-999.0,-999,0.00,,,0.00,weatherlink.com 1.10,2013-02-26 03:22:00,
2013-02-25 22:37:00,-999.0,-99.9,26.33,North,-999,-999.0,-999.0,-999,0.00,,,0.00,weatherlink.com 1.10,2013-02-26 03:37:00,
2013-02-25 22:52:00,-999.0,-99.9,26.32,North,-999,-999.0,-999.0,-999,0.00,,,0.00,weatherlink.com 1.10,2013-02-26 03:52:00,
2013-02-25 23:07:00,-999.0,-99.9,26.32,North,-999,-999.0,-999.0,-999,0.00,,,0.00,weatherlink.com 1.10,2013-02-26 04:07:00,
2013-02-25 23:22:00,-999.0,-99.9,26.33,North,-999,-999.0,-999.0,-999,0.00,,,0.00,weatherlink.com 1.10,2013-02-26 04:22:00,
2013-02-25 23:38:00,-999.0,-99.9,26.31,North,-999,-999.0,-999.0,-999,0.00,,,0.00,weatherlink.com 1.10,2013-02-26 04:38:00,
2013-02-25 23:53:00,-999.0,-99.9,26.31,North,-999,-999.0,-999.0,-999,0.00,,,0.00,weatherlink.com 1.10,2013-02-26 04:53:00,